sensor_id;sensor_type;location;lat;lon;timestamp;P1;durP1;ratioP1;P2;durP2;ratioP2
5543;SDS011;2795;47.652;13.128;2023-09-08T00:02:01;34.13;;;11.90;;
5543;SDS011;2795;47.652;13.128;2023-09-08T00:04:28;34.70;;;12.80;;
5543;SDS011;2795;47.652;13.128;2023-09-08T00:06:55;28.07;;;11.90;;
5543;SDS011;2795;47.652;13.128;2023-09-08T00:09:21;23.77;;;11.33;;
5543;SDS011;2795;47.652;13.128;2023-09-08T00:11:48;31.47;;;12.73;;
5543;SDS011;2795;47.652;13.128;2023-09-08T00:14:15;20.30;;;10.63;;
5543;SDS011;2795;47.652;13.128;2023-09-08T00:16:42;24.43;;;11.53;;
5543;SDS011;2795;47.652;13.128;2023-09-08T00:19:11;31.87;;;11.80;;
5543;SDS011;2795;47.652;13.128;2023-09-08T00:21:38;21.57;;;11.00;;
5543;SDS011;2795;47.652;13.128;2023-09-08T00:24:05;35.73;;;13.20;;
5543;SDS011;2795;47.652;13.128;2023-09-08T00:26:32;31.90;;;13.07;;
5543;SDS011;2795;47.652;13.128;2023-09-08T00:28:59;33.97;;;13.67;;
5543;SDS011;2795;47.652;13.128;2023-09-08T00:31:26;40.73;;;14.60;;
5543;SDS011;2795;47.652;13.128;2023-09-08T00:33:52;25.80;;;11.10;;
5543;SDS011;2795;47.652;13.128;2023-09-08T00:36:19;38.20;;;14.13;;
5543;SDS011;2795;47.652;13.128;2023-09-08T00:38:46;36.30;;;12.50;;
5543;SDS011;2795;47.652;13.128;2023-09-08T00:41:13;28.93;;;11.50;;
5543;SDS011;2795;47.652;13.128;2023-09-08T00:43:39;32.13;;;12.53;;
5543;SDS011;2795;47.652;13.128;2023-09-08T00:46:06;40.73;;;13.97;;
5543;SDS011;2795;47.652;13.128;2023-09-08T00:48:33;32.47;;;12.53;;
5543;SDS011;2795;47.652;13.128;2023-09-08T00:51:01;32.50;;;12.43;;
5543;SDS011;2795;47.652;13.128;2023-09-08T00:53:29;32.43;;;12.90;;
5543;SDS011;2795;47.652;13.128;2023-09-08T00:55:57;34.50;;;14.30;;
5543;SDS011;2795;47.652;13.128;2023-09-08T00:58:25;27.73;;;11.60;;
5543;SDS011;2795;47.652;13.128;2023-09-08T01:00:52;34.33;;;12.63;;
5543;SDS011;2795;47.652;13.128;2023-09-08T01:03:18;88.60;;;18.50;;
5543;SDS011;2795;47.652;13.128;2023-09-08T01:05:45;31.13;;;11.70;;
5543;SDS011;2795;47.652;13.128;2023-09-08T01:08:13;21.13;;;10.27;;
5543;SDS011;2795;47.652;13.128;2023-09-08T01:10:40;31.30;;;11.77;;
5543;SDS011;2795;47.652;13.128;2023-09-08T01:13:08;26.30;;;11.10;;
5543;SDS011;2795;47.652;13.128;2023-09-08T01:15:35;20.60;;;9.90;;
5543;SDS011;2795;47.652;13.128;2023-09-08T01:18:02;26.07;;;10.87;;
5543;SDS011;2795;47.652;13.128;2023-09-08T01:25:46;37.73;;;12.13;;
5543;SDS011;2795;47.652;13.128;2023-09-08T01:28:17;39.30;;;12.53;;
5543;SDS011;2795;47.652;13.128;2023-09-08T01:30:45;25.53;;;10.53;;
5543;SDS011;2795;47.652;13.128;2023-09-08T01:33:13;22.30;;;10.23;;
5543;SDS011;2795;47.652;13.128;2023-09-08T01:35:40;30.50;;;11.77;;
5543;SDS011;2795;47.652;13.128;2023-09-08T01:38:06;38.13;;;12.63;;
5543;SDS011;2795;47.652;13.128;2023-09-08T01:40:33;32.63;;;11.93;;
5543;SDS011;2795;47.652;13.128;2023-09-08T01:43:00;33.57;;;10.73;;
5543;SDS011;2795;47.652;13.128;2023-09-08T01:45:27;27.10;;;10.30;;
5543;SDS011;2795;47.652;13.128;2023-09-08T01:47:54;23.03;;;9.53;;
5543;SDS011;2795;47.652;13.128;2023-09-08T01:50:21;26.43;;;9.93;;
5543;SDS011;2795;47.652;13.128;2023-09-08T01:52:48;26.83;;;10.97;;
5543;SDS011;2795;47.652;13.128;2023-09-08T01:55:15;25.43;;;10.87;;
5543;SDS011;2795;47.652;13.128;2023-09-08T01:57:45;25.17;;;9.87;;
5543;SDS011;2795;47.652;13.128;2023-09-08T02:00:12;27.03;;;11.40;;
5543;SDS011;2795;47.652;13.128;2023-09-08T02:02:39;28.80;;;10.67;;
5543;SDS011;2795;47.652;13.128;2023-09-08T02:05:06;29.77;;;10.40;;
5543;SDS011;2795;47.652;13.128;2023-09-08T02:07:34;36.07;;;11.00;;
5543;SDS011;2795;47.652;13.128;2023-09-08T02:10:01;28.50;;;10.73;;
5543;SDS011;2795;47.652;13.128;2023-09-08T02:12:27;33.10;;;11.43;;
5543;SDS011;2795;47.652;13.128;2023-09-08T02:14:54;23.70;;;9.57;;
5543;SDS011;2795;47.652;13.128;2023-09-08T02:17:21;34.50;;;11.70;;
5543;SDS011;2795;47.652;13.128;2023-09-08T02:19:48;28.67;;;9.80;;
5543;SDS011;2795;47.652;13.128;2023-09-08T02:22:15;38.93;;;11.00;;
5543;SDS011;2795;47.652;13.128;2023-09-08T02:24:42;47.57;;;13.13;;
5543;SDS011;2795;47.652;13.128;2023-09-08T02:27:08;27.23;;;10.80;;
5543;SDS011;2795;47.652;13.128;2023-09-08T02:29:35;28.70;;;11.13;;
5543;SDS011;2795;47.652;13.128;2023-09-08T02:32:02;36.33;;;11.70;;
5543;SDS011;2795;47.652;13.128;2023-09-08T02:34:29;29.20;;;10.77;;
5543;SDS011;2795;47.652;13.128;2023-09-08T02:36:55;27.00;;;10.03;;
5543;SDS011;2795;47.652;13.128;2023-09-08T02:39:22;28.57;;;10.03;;
5543;SDS011;2795;47.652;13.128;2023-09-08T02:41:49;28.03;;;9.90;;
5543;SDS011;2795;47.652;13.128;2023-09-08T02:44:16;16.43;;;8.27;;
5543;SDS011;2795;47.652;13.128;2023-09-08T02:46:43;31.03;;;10.43;;
5543;SDS011;2795;47.652;13.128;2023-09-08T02:49:10;23.63;;;9.13;;
5543;SDS011;2795;47.652;13.128;2023-09-08T02:51:37;23.77;;;8.77;;
5543;SDS011;2795;47.652;13.128;2023-09-08T02:54:04;40.87;;;12.10;;
5543;SDS011;2795;47.652;13.128;2023-09-08T02:56:31;21.57;;;9.53;;
5543;SDS011;2795;47.652;13.128;2023-09-08T02:58:57;27.13;;;9.93;;
5543;SDS011;2795;47.652;13.128;2023-09-08T03:01:24;34.10;;;11.07;;
5543;SDS011;2795;47.652;13.128;2023-09-08T03:03:51;78.00;;;12.30;;
5543;SDS011;2795;47.652;13.128;2023-09-08T03:06:18;19.63;;;8.23;;
5543;SDS011;2795;47.652;13.128;2023-09-08T03:08:46;24.37;;;10.07;;
5543;SDS011;2795;47.652;13.128;2023-09-08T03:11:13;26.50;;;9.63;;
5543;SDS011;2795;47.652;13.128;2023-09-08T03:13:40;24.07;;;9.13;;
5543;SDS011;2795;47.652;13.128;2023-09-08T03:16:07;19.73;;;9.03;;
5543;SDS011;2795;47.652;13.128;2023-09-08T03:18:35;18.73;;;8.30;;
5543;SDS011;2795;47.652;13.128;2023-09-08T03:21:03;36.33;;;10.73;;
5543;SDS011;2795;47.652;13.128;2023-09-08T03:26:03;34.63;;;10.93;;
5543;SDS011;2795;47.652;13.128;2023-09-08T03:28:30;30.57;;;11.10;;
5543;SDS011;2795;47.652;13.128;2023-09-08T03:30:57;36.40;;;12.47;;
5543;SDS011;2795;47.652;13.128;2023-09-08T03:33:24;35.37;;;11.80;;
5543;SDS011;2795;47.652;13.128;2023-09-08T03:35:51;36.40;;;12.20;;
5543;SDS011;2795;47.652;13.128;2023-09-08T03:38:18;25.50;;;10.77;;
5543;SDS011;2795;47.652;13.128;2023-09-08T03:40:44;28.67;;;10.50;;
5543;SDS011;2795;47.652;13.128;2023-09-08T03:43:11;25.80;;;10.33;;
5543;SDS011;2795;47.652;13.128;2023-09-08T03:45:38;25.53;;;9.87;;
5543;SDS011;2795;47.652;13.128;2023-09-08T03:48:05;20.53;;;9.27;;
5543;SDS011;2795;47.652;13.128;2023-09-08T03:50:33;34.70;;;11.27;;
5543;SDS011;2795;47.652;13.128;2023-09-08T03:52:59;24.43;;;9.80;;
5543;SDS011;2795;47.652;13.128;2023-09-08T03:55:26;24.57;;;8.27;;
5543;SDS011;2795;47.652;13.128;2023-09-08T03:57:53;28.43;;;9.60;;
5543;SDS011;2795;47.652;13.128;2023-09-08T04:00:19;36.73;;;11.13;;
5543;SDS011;2795;47.652;13.128;2023-09-08T04:02:48;27.60;;;9.47;;
5543;SDS011;2795;47.652;13.128;2023-09-08T04:05:16;26.80;;;8.90;;
5543;SDS011;2795;47.652;13.128;2023-09-08T04:07:44;36.00;;;9.60;;
5543;SDS011;2795;47.652;13.128;2023-09-08T04:10:13;26.00;;;8.50;;
5543;SDS011;2795;47.652;13.128;2023-09-08T04:12:41;33.47;;;9.33;;
5543;SDS011;2795;47.652;13.128;2023-09-08T04:15:08;36.07;;;10.33;;
5543;SDS011;2795;47.652;13.128;2023-09-08T04:17:35;26.53;;;9.60;;
5543;SDS011;2795;47.652;13.128;2023-09-08T04:20:04;22.73;;;7.70;;
5543;SDS011;2795;47.652;13.128;2023-09-08T04:22:32;26.60;;;8.77;;
5543;SDS011;2795;47.652;13.128;2023-09-08T04:24:59;33.87;;;9.80;;
5543;SDS011;2795;47.652;13.128;2023-09-08T04:27:26;27.23;;;7.93;;
5543;SDS011;2795;47.652;13.128;2023-09-08T04:29:52;32.77;;;10.03;;
5543;SDS011;2795;47.652;13.128;2023-09-08T04:32:19;18.37;;;7.43;;
5543;SDS011;2795;47.652;13.128;2023-09-08T04:34:46;23.30;;;7.73;;
5543;SDS011;2795;47.652;13.128;2023-09-08T04:37:12;39.97;;;10.00;;
5543;SDS011;2795;47.652;13.128;2023-09-08T04:39:40;34.37;;;9.07;;
5543;SDS011;2795;47.652;13.128;2023-09-08T04:42:07;29.33;;;8.67;;
5543;SDS011;2795;47.652;13.128;2023-09-08T04:44:33;17.50;;;7.40;;
5543;SDS011;2795;47.652;13.128;2023-09-08T04:47:00;25.00;;;8.57;;
5543;SDS011;2795;47.652;13.128;2023-09-08T04:49:27;35.87;;;9.43;;
5543;SDS011;2795;47.652;13.128;2023-09-08T04:51:55;37.30;;;10.57;;
5543;SDS011;2795;47.652;13.128;2023-09-08T04:54:22;22.77;;;8.37;;
5543;SDS011;2795;47.652;13.128;2023-09-08T04:56:53;28.67;;;9.00;;
5543;SDS011;2795;47.652;13.128;2023-09-08T04:59:32;29.93;;;9.07;;
5543;SDS011;2795;47.652;13.128;2023-09-08T05:01:59;20.80;;;8.33;;
5543;SDS011;2795;47.652;13.128;2023-09-08T05:04:26;25.37;;;7.43;;
5543;SDS011;2795;47.652;13.128;2023-09-08T05:06:53;23.33;;;8.43;;
5543;SDS011;2795;47.652;13.128;2023-09-08T05:09:19;31.17;;;9.47;;
5543;SDS011;2795;47.652;13.128;2023-09-08T05:11:46;28.80;;;9.30;;
5543;SDS011;2795;47.652;13.128;2023-09-08T05:14:13;26.03;;;7.93;;
5543;SDS011;2795;47.652;13.128;2023-09-08T05:16:40;25.07;;;8.77;;
5543;SDS011;2795;47.652;13.128;2023-09-08T05:19:12;36.67;;;9.87;;
5543;SDS011;2795;47.652;13.128;2023-09-08T05:21:39;35.17;;;8.47;;
5543;SDS011;2795;47.652;13.128;2023-09-08T05:24:06;22.73;;;8.27;;
5543;SDS011;2795;47.652;13.128;2023-09-08T05:26:36;19.80;;;7.13;;
5543;SDS011;2795;47.652;13.128;2023-09-08T05:29:03;24.20;;;8.17;;
5543;SDS011;2795;47.652;13.128;2023-09-08T05:31:29;30.70;;;9.17;;
5543;SDS011;2795;47.652;13.128;2023-09-08T05:33:56;32.20;;;9.40;;
5543;SDS011;2795;47.652;13.128;2023-09-08T05:36:23;37.83;;;10.17;;
5543;SDS011;2795;47.652;13.128;2023-09-08T05:38:50;24.57;;;7.67;;
5543;SDS011;2795;47.652;13.128;2023-09-08T05:41:16;34.13;;;10.73;;
5543;SDS011;2795;47.652;13.128;2023-09-08T05:43:44;27.07;;;8.87;;
5543;SDS011;2795;47.652;13.128;2023-09-08T05:46:11;21.33;;;8.60;;
5543;SDS011;2795;47.652;13.128;2023-09-08T05:48:37;26.53;;;8.87;;
5543;SDS011;2795;47.652;13.128;2023-09-08T05:51:04;32.70;;;10.40;;
5543;SDS011;2795;47.652;13.128;2023-09-08T05:53:33;24.87;;;8.77;;
5543;SDS011;2795;47.652;13.128;2023-09-08T05:56:02;31.47;;;10.03;;
5543;SDS011;2795;47.652;13.128;2023-09-08T05:58:28;25.30;;;9.30;;
5543;SDS011;2795;47.652;13.128;2023-09-08T06:00:56;34.93;;;10.93;;
5543;SDS011;2795;47.652;13.128;2023-09-08T06:03:23;26.43;;;9.47;;
5543;SDS011;2795;47.652;13.128;2023-09-08T06:05:50;35.73;;;10.70;;
5543;SDS011;2795;47.652;13.128;2023-09-08T06:08:17;21.40;;;8.07;;
5543;SDS011;2795;47.652;13.128;2023-09-08T06:10:43;30.53;;;10.20;;
5543;SDS011;2795;47.652;13.128;2023-09-08T06:13:10;25.33;;;9.00;;
5543;SDS011;2795;47.652;13.128;2023-09-08T06:15:37;27.80;;;9.03;;
5543;SDS011;2795;47.652;13.128;2023-09-08T06:18:04;29.87;;;9.70;;
5543;SDS011;2795;47.652;13.128;2023-09-08T06:20:31;19.13;;;7.33;;
5543;SDS011;2795;47.652;13.128;2023-09-08T06:22:58;17.40;;;7.83;;
5543;SDS011;2795;47.652;13.128;2023-09-08T06:25:26;19.37;;;8.93;;
5543;SDS011;2795;47.652;13.128;2023-09-08T06:27:52;28.67;;;9.40;;
5543;SDS011;2795;47.652;13.128;2023-09-08T06:30:19;28.13;;;9.53;;
5543;SDS011;2795;47.652;13.128;2023-09-08T06:32:46;23.30;;;8.57;;
5543;SDS011;2795;47.652;13.128;2023-09-08T06:35:13;21.80;;;8.57;;
5543;SDS011;2795;47.652;13.128;2023-09-08T06:37:40;18.90;;;8.10;;
5543;SDS011;2795;47.652;13.128;2023-09-08T06:40:06;19.00;;;8.50;;
5543;SDS011;2795;47.652;13.128;2023-09-08T06:42:34;16.93;;;7.83;;
5543;SDS011;2795;47.652;13.128;2023-09-08T06:45:01;21.30;;;9.00;;
5543;SDS011;2795;47.652;13.128;2023-09-08T06:47:28;25.13;;;8.30;;
5543;SDS011;2795;47.652;13.128;2023-09-08T06:49:55;27.43;;;10.20;;
5543;SDS011;2795;47.652;13.128;2023-09-08T06:52:22;20.57;;;8.33;;
5543;SDS011;2795;47.652;13.128;2023-09-08T06:54:48;21.40;;;8.57;;
5543;SDS011;2795;47.652;13.128;2023-09-08T06:57:17;19.87;;;8.00;;
5543;SDS011;2795;47.652;13.128;2023-09-08T06:59:45;18.00;;;7.97;;
5543;SDS011;2795;47.652;13.128;2023-09-08T07:02:13;24.60;;;8.77;;
5543;SDS011;2795;47.652;13.128;2023-09-08T07:04:39;23.93;;;8.00;;
5543;SDS011;2795;47.652;13.128;2023-09-08T07:07:06;18.20;;;8.63;;
5543;SDS011;2795;47.652;13.128;2023-09-08T07:09:34;20.57;;;8.40;;
5543;SDS011;2795;47.652;13.128;2023-09-08T07:12:05;19.80;;;8.37;;
5543;SDS011;2795;47.652;13.128;2023-09-08T07:14:32;27.17;;;9.80;;
5543;SDS011;2795;47.652;13.128;2023-09-08T07:16:59;18.93;;;8.33;;
5543;SDS011;2795;47.652;13.128;2023-09-08T07:19:26;19.23;;;8.37;;
5543;SDS011;2795;47.652;13.128;2023-09-08T07:21:53;19.93;;;8.47;;
5543;SDS011;2795;47.652;13.128;2023-09-08T07:24:20;29.57;;;9.43;;
5543;SDS011;2795;47.652;13.128;2023-09-08T07:26:47;28.20;;;9.93;;
5543;SDS011;2795;47.652;13.128;2023-09-08T07:29:14;18.33;;;8.30;;
5543;SDS011;2795;47.652;13.128;2023-09-08T07:31:40;31.83;;;9.43;;
5543;SDS011;2795;47.652;13.128;2023-09-08T07:34:07;32.83;;;9.23;;
5543;SDS011;2795;47.652;13.128;2023-09-08T07:36:35;15.93;;;7.77;;
5543;SDS011;2795;47.652;13.128;2023-09-08T07:39:02;23.27;;;7.77;;
5543;SDS011;2795;47.652;13.128;2023-09-08T07:41:29;19.80;;;8.13;;
5543;SDS011;2795;47.652;13.128;2023-09-08T07:43:56;19.93;;;8.60;;
5543;SDS011;2795;47.652;13.128;2023-09-08T07:46:23;19.27;;;7.80;;
5543;SDS011;2795;47.652;13.128;2023-09-08T07:48:50;22.97;;;8.97;;
5543;SDS011;2795;47.652;13.128;2023-09-08T07:51:16;28.30;;;9.77;;
5543;SDS011;2795;47.652;13.128;2023-09-08T07:53:43;29.53;;;8.77;;
5543;SDS011;2795;47.652;13.128;2023-09-08T07:56:10;20.67;;;8.20;;
5543;SDS011;2795;47.652;13.128;2023-09-08T07:58:37;18.63;;;8.10;;
5543;SDS011;2795;47.652;13.128;2023-09-08T08:01:06;20.43;;;8.33;;
5543;SDS011;2795;47.652;13.128;2023-09-08T08:03:32;20.00;;;7.70;;
5543;SDS011;2795;47.652;13.128;2023-09-08T08:06:02;24.37;;;8.77;;
5543;SDS011;2795;47.652;13.128;2023-09-08T08:08:28;20.03;;;8.17;;
5543;SDS011;2795;47.652;13.128;2023-09-08T08:10:55;34.13;;;10.63;;
5543;SDS011;2795;47.652;13.128;2023-09-08T08:13:22;24.53;;;9.37;;
5543;SDS011;2795;47.652;13.128;2023-09-08T08:15:49;19.30;;;8.17;;
5543;SDS011;2795;47.652;13.128;2023-09-08T08:18:16;17.37;;;7.43;;
5543;SDS011;2795;47.652;13.128;2023-09-08T08:20:43;31.87;;;9.80;;
5543;SDS011;2795;47.652;13.128;2023-09-08T08:23:10;24.30;;;8.97;;
5543;SDS011;2795;47.652;13.128;2023-09-08T08:25:37;23.60;;;8.77;;
5543;SDS011;2795;47.652;13.128;2023-09-08T08:28:03;21.10;;;8.87;;
5543;SDS011;2795;47.652;13.128;2023-09-08T08:30:30;17.57;;;7.87;;
5543;SDS011;2795;47.652;13.128;2023-09-08T08:32:58;25.63;;;9.33;;
5543;SDS011;2795;47.652;13.128;2023-09-08T08:35:25;16.93;;;7.83;;
5543;SDS011;2795;47.652;13.128;2023-09-08T08:37:52;24.97;;;9.10;;
5543;SDS011;2795;47.652;13.128;2023-09-08T08:40:18;26.50;;;9.30;;
5543;SDS011;2795;47.652;13.128;2023-09-08T08:42:45;16.80;;;7.47;;
5543;SDS011;2795;47.652;13.128;2023-09-08T08:45:12;24.50;;;8.93;;
5543;SDS011;2795;47.652;13.128;2023-09-08T08:47:46;21.43;;;8.40;;
5543;SDS011;2795;47.652;13.128;2023-09-08T08:50:15;24.03;;;9.83;;
5543;SDS011;2795;47.652;13.128;2023-09-08T08:52:43;26.00;;;8.93;;
5543;SDS011;2795;47.652;13.128;2023-09-08T08:55:11;26.90;;;8.70;;
5543;SDS011;2795;47.652;13.128;2023-09-08T08:57:38;25.83;;;9.50;;
5543;SDS011;2795;47.652;13.128;2023-09-08T09:00:09;22.77;;;7.80;;
5543;SDS011;2795;47.652;13.128;2023-09-08T09:02:39;12.60;;;6.83;;
5543;SDS011;2795;47.652;13.128;2023-09-08T09:05:11;19.50;;;7.63;;
5543;SDS011;2795;47.652;13.128;2023-09-08T09:07:40;23.60;;;8.80;;
5543;SDS011;2795;47.652;13.128;2023-09-08T09:10:08;22.53;;;8.70;;
5543;SDS011;2795;47.652;13.128;2023-09-08T09:12:38;17.20;;;7.20;;
5543;SDS011;2795;47.652;13.128;2023-09-08T09:15:06;13.90;;;7.40;;
5543;SDS011;2795;47.652;13.128;2023-09-08T09:17:34;18.20;;;7.50;;
5543;SDS011;2795;47.652;13.128;2023-09-08T09:20:14;19.87;;;8.47;;
5543;SDS011;2795;47.652;13.128;2023-09-08T09:22:44;23.67;;;8.60;;
5543;SDS011;2795;47.652;13.128;2023-09-08T09:25:25;19.70;;;7.80;;
5543;SDS011;2795;47.652;13.128;2023-09-08T09:27:56;20.93;;;9.10;;
5543;SDS011;2795;47.652;13.128;2023-09-08T09:30:25;19.73;;;8.03;;
5543;SDS011;2795;47.652;13.128;2023-09-08T09:33:01;24.60;;;9.67;;
5543;SDS011;2795;47.652;13.128;2023-09-08T09:35:39;18.03;;;6.97;;
5543;SDS011;2795;47.652;13.128;2023-09-08T09:38:07;19.63;;;7.50;;
5543;SDS011;2795;47.652;13.128;2023-09-08T09:40:35;28.03;;;10.03;;
5543;SDS011;2795;47.652;13.128;2023-09-08T09:43:02;23.73;;;8.03;;
5543;SDS011;2795;47.652;13.128;2023-09-08T09:45:32;17.13;;;7.07;;
5543;SDS011;2795;47.652;13.128;2023-09-08T09:48:05;18.87;;;7.87;;
5543;SDS011;2795;47.652;13.128;2023-09-08T09:50:39;28.07;;;9.17;;
5543;SDS011;2795;47.652;13.128;2023-09-08T09:53:10;25.13;;;8.90;;
5543;SDS011;2795;47.652;13.128;2023-09-08T09:55:39;14.70;;;6.93;;
5543;SDS011;2795;47.652;13.128;2023-09-08T09:58:07;23.57;;;8.77;;
5543;SDS011;2795;47.652;13.128;2023-09-08T10:00:37;23.53;;;8.67;;
5543;SDS011;2795;47.652;13.128;2023-09-08T10:03:07;16.50;;;7.47;;
5543;SDS011;2795;47.652;13.128;2023-09-08T10:05:35;25.30;;;9.63;;
5543;SDS011;2795;47.652;13.128;2023-09-08T10:08:02;17.23;;;7.63;;
5543;SDS011;2795;47.652;13.128;2023-09-08T10:10:29;16.93;;;8.30;;
5543;SDS011;2795;47.652;13.128;2023-09-08T10:13:00;20.03;;;8.03;;
5543;SDS011;2795;47.652;13.128;2023-09-08T10:15:30;22.30;;;7.53;;
5543;SDS011;2795;47.652;13.128;2023-09-08T10:17:57;14.70;;;7.00;;
5543;SDS011;2795;47.652;13.128;2023-09-08T10:20:27;14.27;;;7.07;;
5543;SDS011;2795;47.652;13.128;2023-09-08T10:23:06;32.13;;;10.13;;
5543;SDS011;2795;47.652;13.128;2023-09-08T10:25:37;25.70;;;9.40;;
5543;SDS011;2795;47.652;13.128;2023-09-08T10:28:10;23.70;;;8.93;;
5543;SDS011;2795;47.652;13.128;2023-09-08T10:30:38;14.10;;;7.17;;
5543;SDS011;2795;47.652;13.128;2023-09-08T10:33:05;19.20;;;7.70;;
5543;SDS011;2795;47.652;13.128;2023-09-08T10:35:32;21.20;;;8.90;;
5543;SDS011;2795;47.652;13.128;2023-09-08T10:40:53;28.13;;;9.30;;
5543;SDS011;2795;47.652;13.128;2023-09-08T10:43:20;30.30;;;9.50;;
5543;SDS011;2795;47.652;13.128;2023-09-08T10:45:47;16.53;;;7.83;;
5543;SDS011;2795;47.652;13.128;2023-09-08T10:48:14;21.60;;;8.27;;
5543;SDS011;2795;47.652;13.128;2023-09-08T10:50:42;21.27;;;7.70;;
5543;SDS011;2795;47.652;13.128;2023-09-08T10:55:47;20.23;;;8.37;;
5543;SDS011;2795;47.652;13.128;2023-09-08T10:58:36;15.70;;;7.23;;
5543;SDS011;2795;47.652;13.128;2023-09-08T11:01:05;31.57;;;10.10;;
5543;SDS011;2795;47.652;13.128;2023-09-08T11:06:05;14.30;;;7.17;;
5543;SDS011;2795;47.652;13.128;2023-09-08T11:08:32;30.27;;;10.13;;
5543;SDS011;2795;47.652;13.128;2023-09-08T11:11:00;24.00;;;8.73;;
5543;SDS011;2795;47.652;13.128;2023-09-08T11:13:27;32.17;;;9.47;;
5543;SDS011;2795;47.652;13.128;2023-09-08T11:15:57;31.17;;;9.20;;
5543;SDS011;2795;47.652;13.128;2023-09-08T11:18:26;21.73;;;7.93;;
5543;SDS011;2795;47.652;13.128;2023-09-08T11:20:54;18.90;;;7.40;;
5543;SDS011;2795;47.652;13.128;2023-09-08T11:23:21;33.00;;;10.27;;
5543;SDS011;2795;47.652;13.128;2023-09-08T11:25:48;25.83;;;8.60;;
5543;SDS011;2795;47.652;13.128;2023-09-08T11:28:16;34.37;;;9.90;;
5543;SDS011;2795;47.652;13.128;2023-09-08T11:30:47;23.27;;;8.40;;
5543;SDS011;2795;47.652;13.128;2023-09-08T11:33:14;16.67;;;8.00;;
5543;SDS011;2795;47.652;13.128;2023-09-08T11:35:47;37.33;;;11.83;;
5543;SDS011;2795;47.652;13.128;2023-09-08T11:38:14;17.53;;;8.37;;
5543;SDS011;2795;47.652;13.128;2023-09-08T11:40:41;16.93;;;7.77;;
5543;SDS011;2795;47.652;13.128;2023-09-08T11:43:08;18.80;;;8.33;;
5543;SDS011;2795;47.652;13.128;2023-09-08T11:45:35;30.50;;;10.50;;
5543;SDS011;2795;47.652;13.128;2023-09-08T11:48:05;22.70;;;9.33;;
5543;SDS011;2795;47.652;13.128;2023-09-08T11:50:33;20.97;;;7.93;;
5543;SDS011;2795;47.652;13.128;2023-09-08T11:53:00;27.23;;;9.87;;
5543;SDS011;2795;47.652;13.128;2023-09-08T11:55:28;22.20;;;9.27;;
5543;SDS011;2795;47.652;13.128;2023-09-08T11:57:55;29.13;;;9.70;;
5543;SDS011;2795;47.652;13.128;2023-09-08T12:00:27;42.53;;;10.13;;
5543;SDS011;2795;47.652;13.128;2023-09-08T12:02:55;34.07;;;11.00;;
5543;SDS011;2795;47.652;13.128;2023-09-08T12:05:25;31.50;;;10.17;;
5543;SDS011;2795;47.652;13.128;2023-09-08T12:07:54;15.07;;;7.63;;
5543;SDS011;2795;47.652;13.128;2023-09-08T12:10:23;20.57;;;8.87;;
5543;SDS011;2795;47.652;13.128;2023-09-08T12:12:51;18.60;;;8.63;;
5543;SDS011;2795;47.652;13.128;2023-09-08T12:15:36;28.20;;;8.70;;
5543;SDS011;2795;47.652;13.128;2023-09-08T12:18:07;13.90;;;7.40;;
5543;SDS011;2795;47.652;13.128;2023-09-08T12:20:36;20.23;;;8.50;;
5543;SDS011;2795;47.652;13.128;2023-09-08T12:23:05;24.83;;;8.30;;
5543;SDS011;2795;47.652;13.128;2023-09-08T12:25:33;19.53;;;8.73;;
5543;SDS011;2795;47.652;13.128;2023-09-08T12:28:04;20.20;;;8.53;;
5543;SDS011;2795;47.652;13.128;2023-09-08T12:30:31;14.97;;;7.63;;
5543;SDS011;2795;47.652;13.128;2023-09-08T12:32:59;17.23;;;7.93;;
5543;SDS011;2795;47.652;13.128;2023-09-08T12:35:27;24.37;;;9.40;;
5543;SDS011;2795;47.652;13.128;2023-09-08T12:38:03;20.40;;;8.87;;
5543;SDS011;2795;47.652;13.128;2023-09-08T12:40:34;19.87;;;8.93;;
5543;SDS011;2795;47.652;13.128;2023-09-08T12:43:02;19.80;;;9.03;;
5543;SDS011;2795;47.652;13.128;2023-09-08T12:45:50;24.60;;;8.73;;
5543;SDS011;2795;47.652;13.128;2023-09-08T12:48:17;23.13;;;9.67;;
5543;SDS011;2795;47.652;13.128;2023-09-08T12:50:46;17.43;;;8.30;;
5543;SDS011;2795;47.652;13.128;2023-09-08T12:53:15;19.07;;;8.97;;
5543;SDS011;2795;47.652;13.128;2023-09-08T12:55:44;23.80;;;9.97;;
5543;SDS011;2795;47.652;13.128;2023-09-08T12:58:11;14.50;;;8.37;;
5543;SDS011;2795;47.652;13.128;2023-09-08T13:00:38;21.87;;;9.73;;
5543;SDS011;2795;47.652;13.128;2023-09-08T13:03:05;17.40;;;9.10;;
5543;SDS011;2795;47.652;13.128;2023-09-08T13:05:31;25.70;;;10.37;;
5543;SDS011;2795;47.652;13.128;2023-09-08T13:07:59;15.73;;;8.10;;
5543;SDS011;2795;47.652;13.128;2023-09-08T13:10:26;29.23;;;10.33;;
5543;SDS011;2795;47.652;13.128;2023-09-08T13:12:52;17.07;;;8.73;;
5543;SDS011;2795;47.652;13.128;2023-09-08T13:15:19;13.10;;;8.10;;
5543;SDS011;2795;47.652;13.128;2023-09-08T13:17:46;24.93;;;10.90;;
5543;SDS011;2795;47.652;13.128;2023-09-08T13:20:13;13.90;;;7.70;;
5543;SDS011;2795;47.652;13.128;2023-09-08T13:22:40;17.03;;;9.20;;
5543;SDS011;2795;47.652;13.128;2023-09-08T13:25:07;15.83;;;9.30;;
5543;SDS011;2795;47.652;13.128;2023-09-08T13:27:34;21.73;;;10.13;;
5543;SDS011;2795;47.652;13.128;2023-09-08T13:32:40;22.57;;;9.13;;
5543;SDS011;2795;47.652;13.128;2023-09-08T13:35:07;13.00;;;8.50;;
5543;SDS011;2795;47.652;13.128;2023-09-08T13:37:34;24.43;;;10.23;;
5543;SDS011;2795;47.652;13.128;2023-09-08T13:40:01;23.23;;;10.00;;
5543;SDS011;2795;47.652;13.128;2023-09-08T13:42:31;20.70;;;9.87;;
5543;SDS011;2795;47.652;13.128;2023-09-08T13:44:58;28.13;;;11.47;;
5543;SDS011;2795;47.652;13.128;2023-09-08T13:47:25;24.27;;;11.37;;
5543;SDS011;2795;47.652;13.128;2023-09-08T13:49:53;20.37;;;10.50;;
5543;SDS011;2795;47.652;13.128;2023-09-08T13:52:23;18.40;;;9.73;;
5543;SDS011;2795;47.652;13.128;2023-09-08T13:54:56;21.33;;;10.63;;
5543;SDS011;2795;47.652;13.128;2023-09-08T13:57:26;19.47;;;10.80;;
5543;SDS011;2795;47.652;13.128;2023-09-08T13:59:54;23.37;;;11.50;;
5543;SDS011;2795;47.652;13.128;2023-09-08T14:02:23;21.90;;;11.27;;
5543;SDS011;2795;47.652;13.128;2023-09-08T14:04:52;17.80;;;10.67;;
5543;SDS011;2795;47.652;13.128;2023-09-08T14:07:21;32.53;;;11.47;;
5543;SDS011;2795;47.652;13.128;2023-09-08T14:09:51;21.63;;;10.73;;
5543;SDS011;2795;47.652;13.128;2023-09-08T14:12:30;24.97;;;11.33;;
5543;SDS011;2795;47.652;13.128;2023-09-08T14:15:01;27.23;;;13.37;;
5543;SDS011;2795;47.652;13.128;2023-09-08T14:17:28;32.07;;;15.47;;
5543;SDS011;2795;47.652;13.128;2023-09-08T14:19:55;33.83;;;16.60;;
5543;SDS011;2795;47.652;13.128;2023-09-08T14:22:22;35.17;;;16.07;;
5543;SDS011;2795;47.652;13.128;2023-09-08T14:24:49;25.93;;;13.43;;
5543;SDS011;2795;47.652;13.128;2023-09-08T14:27:16;17.97;;;10.13;;
5543;SDS011;2795;47.652;13.128;2023-09-08T14:29:42;22.87;;;12.20;;
5543;SDS011;2795;47.652;13.128;2023-09-08T14:32:09;17.23;;;10.20;;
5543;SDS011;2795;47.652;13.128;2023-09-08T14:34:36;14.90;;;9.10;;
5543;SDS011;2795;47.652;13.128;2023-09-08T14:37:02;15.40;;;9.30;;
5543;SDS011;2795;47.652;13.128;2023-09-08T14:39:31;20.60;;;10.90;;
5543;SDS011;2795;47.652;13.128;2023-09-08T14:41:58;14.87;;;9.17;;
5543;SDS011;2795;47.652;13.128;2023-09-08T14:44:25;24.80;;;11.80;;
5543;SDS011;2795;47.652;13.128;2023-09-08T14:46:51;21.73;;;10.73;;
5543;SDS011;2795;47.652;13.128;2023-09-08T14:49:18;19.80;;;11.13;;
5543;SDS011;2795;47.652;13.128;2023-09-08T14:51:45;17.73;;;9.60;;
5543;SDS011;2795;47.652;13.128;2023-09-08T14:54:12;21.33;;;10.50;;
5543;SDS011;2795;47.652;13.128;2023-09-08T14:56:38;25.47;;;11.90;;
5543;SDS011;2795;47.652;13.128;2023-09-08T14:59:05;28.53;;;12.27;;
5543;SDS011;2795;47.652;13.128;2023-09-08T15:01:32;17.67;;;9.63;;
5543;SDS011;2795;47.652;13.128;2023-09-08T15:03:59;19.13;;;10.30;;
5543;SDS011;2795;47.652;13.128;2023-09-08T15:06:26;17.80;;;9.73;;